createdAt,value
2018-12-17T00:02:11.980Z,88.93
2018-12-17T00:04:37.812Z,87.98
2018-12-17T00:07:03.670Z,87.91
2018-12-17T00:09:29.405Z,88.38
2018-12-17T00:11:55.166Z,87.96
2018-12-17T00:14:20.904Z,88.47
2018-12-17T00:16:46.732Z,88.32
2018-12-17T00:19:12.575Z,89.07
2018-12-17T00:21:38.310Z,88.13
2018-12-17T00:24:04.056Z,88.37
2018-12-17T00:26:29.791Z,88.67
2018-12-17T00:28:55.565Z,88.68
2018-12-17T00:31:21.303Z,89.20
2018-12-17T00:33:47.167Z,88.88
2018-12-17T00:36:12.922Z,88.21
2018-12-17T00:38:38.784Z,88.92
2018-12-17T00:41:04.791Z,88.48
2018-12-17T00:43:30.951Z,88.48
2018-12-17T00:45:56.695Z,87.92
2018-12-17T00:48:22.651Z,88.83
2018-12-17T00:50:48.385Z,88.05
2018-12-17T00:53:14.122Z,88.84
2018-12-17T00:55:39.960Z,88.36
2018-12-17T00:58:05.814Z,88.52
2018-12-17T01:00:31.550Z,88.36
2018-12-17T01:02:57.535Z,88.07
2018-12-17T01:05:23.375Z,88.25
2018-12-17T01:07:49.203Z,88.66
2018-12-17T01:10:15.042Z,88.43
2018-12-17T01:12:40.784Z,88.43
2018-12-17T01:15:06.841Z,89.00
2018-12-17T01:17:32.683Z,88.13
2018-12-17T01:19:58.449Z,89.17
2018-12-17T01:22:24.184Z,88.27
2018-12-17T01:24:49.942Z,89.30
2018-12-17T01:27:15.794Z,88.82
2018-12-17T01:29:41.539Z,88.93
2018-12-17T01:32:07.376Z,89.32
2018-12-17T01:34:33.108Z,89.04
2018-12-17T01:36:58.934Z,89.36
2018-12-17T01:39:24.708Z,89.02
2018-12-17T01:41:50.445Z,89.81
2018-12-17T01:44:16.199Z,89.46
2018-12-17T01:46:41.945Z,89.77
2018-12-17T01:49:07.698Z,89.47
2018-12-17T01:51:33.548Z,89.45
2018-12-17T01:53:59.287Z,89.78
2018-12-17T01:56:25.054Z,89.77
2018-12-17T01:58:50.786Z,89.27
2018-12-17T02:01:16.530Z,89.20
2018-12-17T02:03:42.295Z,89.80
2018-12-17T02:06:08.147Z,90.32
2018-12-17T02:08:34.020Z,90.46
2018-12-17T02:10:59.980Z,89.81
2018-12-17T02:13:25.716Z,90.16
2018-12-17T02:15:51.564Z,89.89
2018-12-17T02:18:17.403Z,89.90
2018-12-17T02:20:43.163Z,89.63
2018-12-17T02:23:08.903Z,90.10
2018-12-17T02:25:34.658Z,90.13
2018-12-17T02:28:00.587Z,89.81
2018-12-17T02:30:26.320Z,89.95
2018-12-17T02:32:52.170Z,90.04
2018-12-17T02:35:18.056Z,90.57
2018-12-17T02:37:43.828Z,90.57
2018-12-17T02:40:09.583Z,90.27
2018-12-17T02:42:35.388Z,90.30
2018-12-17T02:45:01.487Z,89.81
2018-12-17T02:47:27.210Z,90.68
2018-12-17T02:49:52.959Z,89.43
2018-12-17T02:52:18.700Z,89.52
2018-12-17T02:54:51.320Z,89.72
2018-12-17T02:57:17.077Z,90.89
2018-12-17T02:59:42.836Z,89.83
2018-12-17T03:02:08.804Z,89.87
2018-12-17T03:04:34.624Z,90.12
2018-12-17T03:07:00.368Z,90.02
2018-12-17T03:09:26.101Z,89.74
2018-12-17T03:11:51.944Z,90.49
2018-12-17T03:14:17.694Z,90.65
2018-12-17T03:16:43.449Z,90.50
2018-12-17T03:19:09.194Z,89.97
2018-12-17T03:21:35.050Z,90.84
2018-12-17T03:24:01.009Z,90.30
2018-12-17T03:26:26.943Z,90.64
2018-12-17T03:28:52.696Z,90.93
2018-12-17T03:31:18.449Z,90.46
2018-12-17T03:33:44.392Z,90.25
2018-12-17T03:36:10.147Z,90.92
2018-12-17T03:38:35.898Z,90.66
2018-12-17T03:41:01.966Z,91.35
2018-12-17T03:43:27.706Z,90.26
2018-12-17T03:45:53.560Z,90.12
2018-12-17T03:48:19.431Z,90.92
2018-12-17T03:50:45.423Z,91.29
2018-12-17T03:53:11.167Z,91.01
2018-12-17T03:55:36.899Z,91.56
2018-12-17T03:58:02.776Z,90.85
2018-12-17T04:00:28.515Z,91.71
2018-12-17T04:02:54.281Z,91.47
2018-12-17T04:05:20.021Z,91.46
2018-12-17T04:07:45.760Z,91.41
2018-12-17T04:10:11.693Z,91.54
2018-12-17T04:12:37.527Z,90.56
2018-12-17T04:15:04.457Z,90.89
2018-12-17T04:17:30.191Z,91.37
2018-12-17T04:19:56.014Z,92.02
2018-12-17T04:22:21.838Z,92.07
2018-12-17T04:24:47.570Z,92.27
2018-12-17T04:27:13.304Z,91.76
2018-12-17T04:29:39.055Z,91.73
2018-12-17T04:32:04.801Z,92.49
2018-12-17T04:34:30.665Z,92.16
2018-12-17T04:36:56.389Z,92.48
2018-12-17T04:39:22.328Z,92.36
2018-12-17T04:41:48.047Z,92.65
2018-12-17T04:44:13.782Z,91.82
2018-12-17T04:46:39.495Z,92.21
2018-12-17T04:49:05.219Z,92.39
2018-12-17T04:51:31.160Z,93.44
2018-12-17T04:53:56.893Z,92.39
2018-12-17T04:56:22.810Z,92.99
2018-12-17T04:58:48.534Z,93.72
2018-12-17T05:01:14.246Z,92.36
2018-12-17T05:03:39.976Z,93.21
2018-12-17T05:06:05.794Z,93.26
2018-12-17T05:08:31.630Z,93.00
2018-12-17T05:10:57.351Z,93.79
2018-12-17T05:13:23.079Z,92.99
2018-12-17T05:15:48.799Z,92.68
2018-12-17T05:18:14.519Z,93.58
2018-12-17T05:20:40.243Z,92.69
2018-12-17T05:23:05.984Z,93.11
2018-12-17T05:25:31.720Z,93.62
2018-12-17T05:27:57.462Z,92.90
2018-12-17T05:30:23.182Z,93.02
2018-12-17T05:32:48.911Z,93.90
2018-12-17T05:35:14.658Z,93.28
2018-12-17T05:37:40.383Z,94.34
2018-12-17T05:40:06.414Z,93.74
2018-12-17T05:42:32.135Z,93.69
2018-12-17T05:44:57.876Z,93.79
2018-12-17T05:47:23.603Z,93.66
2018-12-17T05:49:49.340Z,93.36
2018-12-17T05:52:15.159Z,93.99
2018-12-17T05:54:40.997Z,93.07
2018-12-17T05:57:06.718Z,94.23
2018-12-17T05:59:32.446Z,94.52
2018-12-17T06:01:58.174Z,94.00
2018-12-17T06:04:23.991Z,94.35
2018-12-17T06:06:49.715Z,94.26
2018-12-17T06:09:22.594Z,93.95
2018-12-17T06:11:48.519Z,94.04
2018-12-17T06:14:14.243Z,94.14
2018-12-17T06:16:39.959Z,94.08
2018-12-17T06:19:05.777Z,94.08
2018-12-17T06:21:31.507Z,94.72
2018-12-17T06:23:57.255Z,94.53
2018-12-17T06:26:23.090Z,94.07
2018-12-17T06:28:48.811Z,94.82
2018-12-17T06:31:14.634Z,94.33
2018-12-17T06:33:40.447Z,94.06
2018-12-17T06:36:06.271Z,94.25
2018-12-17T06:38:31.994Z,94.63
2018-12-17T06:40:57.827Z,94.16
2018-12-17T06:43:23.551Z,94.74
2018-12-17T06:45:49.287Z,94.86
2018-12-17T06:48:17.209Z,94.66
2018-12-17T06:50:42.842Z,94.82
2018-12-17T06:53:08.575Z,94.02
2018-12-17T06:55:34.399Z,94.96
2018-12-17T06:58:00.525Z,95.03
2018-12-17T07:00:26.293Z,94.16
2018-12-17T07:02:52.075Z,95.07
2018-12-17T07:05:17.897Z,94.27
2018-12-17T07:07:43.621Z,94.28
2018-12-17T07:10:09.455Z,94.33
2018-12-17T07:12:35.182Z,95.10
2018-12-17T07:15:00.990Z,93.90
2018-12-17T07:17:26.819Z,94.97
2018-12-17T07:19:54.137Z,94.85
2018-12-17T07:22:20.098Z,95.04
2018-12-17T07:24:45.818Z,95.22
2018-12-17T07:27:11.599Z,93.96
2018-12-17T07:29:37.422Z,94.27
2018-12-17T07:32:03.375Z,95.18
2018-12-17T07:34:29.311Z,95.28
2018-12-17T07:36:55.964Z,94.11
2018-12-17T07:39:21.798Z,94.78
2018-12-17T07:41:47.638Z,94.13
2018-12-17T07:44:13.466Z,94.18
2018-12-17T07:46:39.267Z,94.06
2018-12-17T07:49:05.107Z,95.25
2018-12-17T07:51:30.889Z,94.10
2018-12-17T07:53:56.686Z,94.38
2018-12-17T07:56:22.515Z,93.91
2018-12-17T07:58:48.359Z,94.23
2018-12-17T08:01:14.112Z,94.73
2018-12-17T08:03:39.831Z,94.39
2018-12-17T08:06:05.669Z,95.32
2018-12-17T08:08:35.371Z,94.99
2018-12-17T08:10:59.243Z,95.15
2018-12-17T08:13:25.075Z,95.30
2018-12-17T08:15:50.795Z,95.30
2018-12-17T08:18:20.879Z,94.85
2018-12-17T08:20:47.498Z,95.71
2018-12-17T08:23:13.330Z,94.82
2018-12-17T08:25:39.057Z,94.99
2018-12-17T08:28:04.899Z,94.67
2018-12-17T08:30:30.718Z,94.75
2018-12-17T08:32:56.447Z,95.58
2018-12-17T08:35:22.162Z,95.28
2018-12-17T08:37:47.914Z,94.76
2018-12-17T08:40:13.649Z,95.76
2018-12-17T08:42:39.379Z,95.09
2018-12-17T08:45:05.254Z,94.72
2018-12-17T08:47:30.995Z,95.12
2018-12-17T08:49:56.710Z,95.57
2018-12-17T08:52:22.458Z,95.61
2018-12-17T08:54:48.486Z,95.04
2018-12-17T08:57:14.221Z,95.90
2018-12-17T08:59:39.937Z,94.87
2018-12-17T09:02:05.765Z,94.53
2018-12-17T09:04:31.589Z,94.51
2018-12-17T09:06:57.298Z,94.66
2018-12-17T09:09:23.068Z,95.17
2018-12-17T09:11:48.910Z,94.89
2018-12-17T09:14:14.637Z,94.84
2018-12-17T09:16:40.379Z,95.35
2018-12-17T09:19:08.136Z,95.28
2018-12-17T09:21:33.870Z,94.85
2018-12-17T09:23:59.699Z,95.15
2018-12-17T09:26:25.542Z,94.17
2018-12-17T09:28:51.263Z,94.77
2018-12-17T09:31:16.983Z,94.29
2018-12-17T09:33:42.999Z,94.13
2018-12-17T09:36:08.822Z,94.39
2018-12-17T09:38:34.555Z,94.97
2018-12-17T09:41:00.396Z,94.06
2018-12-17T09:43:26.127Z,94.21
2018-12-17T09:45:51.962Z,95.37
2018-12-17T09:48:17.835Z,95.06
2018-12-17T09:50:43.554Z,95.07
2018-12-17T09:53:09.376Z,95.14
2018-12-17T09:55:36.361Z,95.00
2018-12-17T09:58:02.544Z,94.24
2018-12-17T10:00:28.284Z,93.94
2018-12-17T10:02:54.059Z,94.62
2018-12-17T10:05:19.887Z,93.68
2018-12-17T10:07:45.638Z,94.63
2018-12-17T10:10:11.467Z,94.19
2018-12-17T10:12:37.183Z,93.89
2018-12-17T10:15:03.816Z,94.30
2018-12-17T10:17:29.538Z,94.39
2018-12-17T10:19:55.271Z,94.34
2018-12-17T10:22:20.997Z,94.27
2018-12-17T10:24:46.846Z,93.39
2018-12-17T10:27:12.670Z,94.15
2018-12-17T10:29:38.506Z,93.29
2018-12-17T10:32:04.347Z,94.37
2018-12-17T10:34:30.197Z,93.58
2018-12-17T10:36:55.918Z,94.63
2018-12-17T10:39:21.739Z,94.00
2018-12-17T10:41:48.142Z,93.70
2018-12-17T10:44:14.220Z,92.78
2018-12-17T10:46:39.979Z,92.59
2018-12-17T10:49:05.711Z,93.03
2018-12-17T10:51:32.137Z,94.01
2018-12-17T10:53:57.883Z,93.83
2018-12-17T10:56:23.632Z,93.14
2018-12-17T10:58:49.351Z,93.84
2018-12-17T11:01:21.469Z,93.29
2018-12-17T11:03:49.538Z,93.18
2018-12-17T11:06:16.731Z,93.05
2018-12-17T11:08:42.646Z,93.37
2018-12-17T11:11:08.374Z,94.06
2018-12-17T11:13:34.712Z,93.70
2018-12-17T11:16:01.177Z,93.74
2018-12-17T11:18:27.035Z,93.54
2018-12-17T11:20:52.767Z,94.10
2018-12-17T11:23:18.617Z,94.10
2018-12-17T11:25:44.433Z,94.04
2018-12-17T11:28:10.254Z,94.08
2018-12-17T11:30:36.315Z,93.49
2018-12-17T11:33:02.036Z,94.36
2018-12-17T11:35:27.888Z,93.19
2018-12-17T11:37:53.615Z,93.09
2018-12-17T11:40:19.339Z,92.90
2018-12-17T11:42:45.327Z,92.81
2018-12-17T11:45:11.199Z,93.32
2018-12-17T11:47:36.928Z,93.49
2018-12-17T11:50:04.279Z,93.78
2018-12-17T11:52:30.001Z,93.03
2018-12-17T11:54:55.851Z,93.18
2018-12-17T11:57:27.479Z,93.68
2018-12-17T11:59:53.247Z,93.98
2018-12-17T12:02:19.074Z,93.34
2018-12-17T12:04:44.806Z,94.01
2018-12-17T12:07:10.533Z,94.06
2018-12-17T12:09:36.260Z,94.03
2018-12-17T12:12:02.086Z,93.18
2018-12-17T12:14:27.806Z,93.43
2018-12-17T12:16:53.536Z,93.55
2018-12-17T12:19:19.272Z,92.91
2018-12-17T12:21:45.004Z,93.86
2018-12-17T12:24:10.723Z,93.83
2018-12-17T12:26:36.433Z,93.59
2018-12-17T12:29:02.276Z,93.42
2018-12-17T12:31:28.006Z,93.67
2018-12-17T12:33:53.824Z,93.06
2018-12-17T12:36:19.570Z,93.91
2018-12-17T12:38:45.407Z,93.78
2018-12-17T12:41:11.240Z,94.32
2018-12-17T12:43:37.071Z,93.47
2018-12-17T12:46:02.897Z,94.76
2018-12-17T12:48:28.620Z,93.83
2018-12-17T12:50:54.351Z,93.95
2018-12-17T12:55:52.709Z,93.93
2018-12-17T12:58:18.437Z,94.39
2018-12-17T13:00:44.159Z,94.36
2018-12-17T13:03:09.890Z,93.07
2018-12-17T13:05:35.621Z,92.97
2018-12-17T13:08:01.347Z,93.77
2018-12-17T13:10:27.170Z,93.87
2018-12-17T13:12:53.027Z,93.41
2018-12-17T13:15:18.946Z,93.36
2018-12-17T13:17:45.598Z,94.03
2018-12-17T13:20:11.628Z,93.70
2018-12-17T13:22:37.453Z,93.92
2018-12-17T13:25:04.186Z,94.30
2018-12-17T13:27:29.914Z,94.11
2018-12-17T13:29:55.623Z,93.88
2018-12-17T13:32:21.351Z,93.96
2018-12-17T13:34:47.095Z,92.81
2018-12-17T13:37:12.818Z,93.92
2018-12-17T13:39:38.838Z,92.68
2018-12-17T13:42:04.566Z,93.51
2018-12-17T13:44:30.280Z,93.00
2018-12-17T13:46:56.098Z,92.68
2018-12-17T13:49:21.958Z,93.44
2018-12-17T13:51:53.826Z,93.12
2018-12-17T13:54:19.546Z,93.67
2018-12-17T13:56:45.271Z,93.45
2018-12-17T13:59:11.017Z,92.71
2018-12-17T14:01:36.735Z,93.44
2018-12-17T14:04:02.574Z,93.50
2018-12-17T14:06:28.382Z,93.74
2018-12-17T14:08:54.205Z,94.34
2018-12-17T14:11:19.924Z,94.22
2018-12-17T14:13:45.743Z,93.58
2018-12-17T14:16:13.474Z,93.37
2018-12-17T14:18:45.357Z,94.19
2018-12-17T14:21:17.192Z,93.78
2018-12-17T14:23:42.918Z,93.98
2018-12-17T14:26:08.765Z,94.40
2018-12-17T14:28:34.485Z,94.34
2018-12-17T14:31:00.298Z,94.94
2018-12-17T14:33:26.011Z,94.69
2018-12-17T14:35:57.845Z,95.07
2018-12-17T14:38:23.604Z,94.28
2018-12-17T14:40:49.435Z,93.65
2018-12-17T14:43:15.307Z,94.39
2018-12-17T14:45:41.097Z,94.15
2018-12-17T14:48:06.935Z,94.74
2018-12-17T14:50:32.734Z,93.46
2018-12-17T14:53:05.490Z,94.58
2018-12-17T14:55:31.214Z,94.47
2018-12-17T14:57:57.030Z,93.74
2018-12-17T15:00:22.858Z,94.55
2018-12-17T15:02:48.590Z,94.17
2018-12-17T15:05:14.311Z,94.55
2018-12-17T15:07:40.020Z,93.88
2018-12-17T15:10:06.044Z,94.12
2018-12-17T15:12:31.855Z,94.40
2018-12-17T15:14:57.570Z,94.23
2018-12-17T15:17:23.374Z,94.56
2018-12-17T15:19:49.210Z,94.44
2018-12-17T15:22:15.019Z,94.68
2018-12-17T15:24:40.858Z,93.66
2018-12-17T15:27:06.674Z,94.10
2018-12-17T15:29:32.619Z,93.59
2018-12-17T15:31:58.434Z,94.41
2018-12-17T15:34:24.167Z,94.63
2018-12-17T15:36:49.890Z,94.05
2018-12-17T15:39:15.728Z,94.29
2018-12-17T15:41:41.429Z,94.76
2018-12-17T15:44:07.146Z,94.15
2018-12-17T15:46:32.880Z,94.78
2018-12-17T15:48:58.810Z,94.39
2018-12-17T15:51:24.522Z,94.58
2018-12-17T15:53:50.246Z,94.77
2018-12-17T15:56:15.955Z,94.17
2018-12-17T15:58:41.772Z,95.18
2018-12-17T16:01:07.605Z,94.24
2018-12-17T16:03:33.311Z,95.06
2018-12-17T16:05:59.038Z,94.38
2018-12-17T16:08:31.743Z,94.09
2018-12-17T16:10:57.573Z,94.86
2018-12-17T16:13:23.274Z,95.59
2018-12-17T16:15:49.098Z,95.54
2018-12-17T16:18:14.903Z,95.51
2018-12-17T16:20:40.658Z,95.64
2018-12-17T16:23:06.442Z,95.26
2018-12-17T16:25:32.366Z,94.80
2018-12-17T16:27:58.066Z,95.55
2018-12-17T16:30:23.782Z,95.57
2018-12-17T16:32:49.603Z,94.36
2018-12-17T16:35:15.322Z,94.92
2018-12-17T16:37:47.951Z,94.39
2018-12-17T16:40:13.793Z,95.68
2018-12-17T16:42:39.670Z,94.97
2018-12-17T16:45:06.602Z,95.23
2018-12-17T16:47:32.421Z,95.87
2018-12-17T16:49:58.178Z,94.90
2018-12-17T16:52:24.002Z,95.18
2018-12-17T16:54:49.714Z,95.38
2018-12-17T16:57:15.425Z,94.57
2018-12-17T16:59:41.145Z,95.97
2018-12-17T17:02:06.969Z,95.62
2018-12-17T17:04:32.678Z,95.67
2018-12-17T17:06:58.393Z,96.10
2018-12-17T17:09:24.214Z,95.16
2018-12-17T17:11:50.134Z,95.73
2018-12-17T17:14:15.842Z,94.74
2018-12-17T17:16:41.692Z,94.90
2018-12-17T17:19:07.516Z,94.91
2018-12-17T17:21:33.234Z,94.58
2018-12-17T17:23:59.051Z,95.29
2018-12-17T17:26:24.776Z,95.20
2018-12-17T17:28:50.588Z,94.67
2018-12-17T17:31:16.321Z,95.51
2018-12-17T17:33:49.006Z,95.57
2018-12-17T17:36:21.722Z,95.27
2018-12-17T17:38:47.439Z,95.63
2018-12-17T17:41:13.146Z,94.77
2018-12-17T17:43:38.850Z,95.27
2018-12-17T17:46:04.680Z,94.80
2018-12-17T17:48:30.403Z,95.72
2018-12-17T17:50:56.263Z,95.82
2018-12-17T17:53:22.191Z,95.90
2018-12-17T17:55:47.931Z,95.61
2018-12-17T17:58:13.661Z,95.50
2018-12-17T18:00:39.382Z,94.72
2018-12-17T18:03:05.117Z,95.71
2018-12-17T18:05:30.975Z,95.90
2018-12-17T18:07:56.703Z,95.17
2018-12-17T18:10:22.414Z,95.16
2018-12-17T18:12:48.130Z,95.37
2018-12-17T18:15:13.954Z,96.02
2018-12-17T18:17:39.710Z,95.54
2018-12-17T18:20:05.542Z,95.29
2018-12-17T18:22:31.759Z,95.65
2018-12-17T18:24:57.495Z,95.66
2018-12-17T18:27:23.226Z,95.82
2018-12-17T18:29:48.946Z,96.50
2018-12-17T18:32:14.929Z,96.55
2018-12-17T18:34:40.794Z,95.86
2018-12-17T18:37:06.606Z,96.52
2018-12-17T18:39:32.439Z,96.69
2018-12-17T18:41:58.258Z,97.13
2018-12-17T18:44:24.081Z,97.40
2018-12-17T18:46:50.012Z,96.40
2018-12-17T18:49:15.869Z,96.29
2018-12-17T18:51:41.690Z,96.84
2018-12-17T18:54:07.526Z,97.03
2018-12-17T18:56:33.347Z,96.79
2018-12-17T18:58:59.079Z,96.49
2018-12-17T19:01:24.898Z,96.45
2018-12-17T19:03:50.624Z,96.60
2018-12-17T19:06:16.452Z,97.03
2018-12-17T19:08:42.228Z,97.22
2018-12-17T19:11:08.006Z,96.90
2018-12-17T19:13:33.734Z,97.40
2018-12-17T19:15:59.662Z,97.23
2018-12-17T19:18:25.490Z,96.33
2018-12-17T19:20:51.280Z,97.73
2018-12-17T19:23:17.003Z,97.27
2018-12-17T19:25:42.760Z,97.61
2018-12-17T19:28:08.555Z,97.51
2018-12-17T19:30:34.270Z,96.80
2018-12-17T19:33:00.120Z,96.88
2018-12-17T19:35:25.850Z,96.90
2018-12-17T19:37:51.562Z,97.75
2018-12-17T19:40:17.387Z,96.79
2018-12-17T19:42:43.211Z,97.68
2018-12-17T19:45:09.173Z,97.27
2018-12-17T19:47:34.998Z,97.28
2018-12-17T19:50:00.726Z,97.09
2018-12-17T19:52:26.490Z,96.73
2018-12-17T19:54:52.214Z,97.14
2018-12-17T19:57:17.930Z,97.76
2018-12-17T19:59:43.697Z,97.08
2018-12-17T20:02:09.562Z,97.50
2018-12-17T20:04:41.541Z,97.26
2018-12-17T20:07:07.290Z,97.59
2018-12-17T20:09:33.042Z,98.00
2018-12-17T20:11:58.875Z,97.34
2018-12-17T20:14:24.756Z,97.05
2018-12-17T20:16:50.470Z,97.95
2018-12-17T20:19:16.194Z,97.65
2018-12-17T20:21:42.015Z,97.60
2018-12-17T20:24:07.744Z,97.22
2018-12-17T20:26:33.563Z,98.10
2018-12-17T20:28:59.275Z,98.33
2018-12-17T20:31:24.991Z,98.02
2018-12-17T20:33:50.714Z,97.78
2018-12-17T20:36:16.438Z,97.15
2018-12-17T20:38:42.159Z,97.70
2018-12-17T20:41:07.886Z,97.66
2018-12-17T20:43:33.699Z,98.25
2018-12-17T20:45:59.441Z,97.36
2018-12-17T20:48:25.158Z,97.57
2018-12-17T20:50:51.020Z,98.24
2018-12-17T20:53:16.918Z,98.28
2018-12-17T20:55:42.887Z,98.39
2018-12-17T20:58:10.404Z,98.17
2018-12-17T21:00:36.563Z,98.12
2018-12-17T21:03:02.768Z,98.17
2018-12-17T21:05:28.611Z,97.27
2018-12-17T21:07:54.545Z,98.27
2018-12-17T21:10:20.388Z,97.68
2018-12-17T21:12:46.142Z,98.13
2018-12-17T21:15:12.073Z,97.51
2018-12-17T21:17:37.908Z,98.23
2018-12-17T21:20:04.455Z,97.37
2018-12-17T21:22:30.621Z,98.29
2018-12-17T21:24:56.369Z,97.33
2018-12-17T21:27:22.093Z,97.26
2018-12-17T21:29:48.257Z,97.57
2018-12-17T21:32:13.992Z,98.43
2018-12-17T21:34:39.802Z,98.23
2018-12-17T21:37:05.598Z,98.33
2018-12-17T21:39:31.572Z,97.50
2018-12-17T21:41:57.740Z,97.65
2018-12-17T21:44:23.919Z,98.26
2018-12-17T21:46:49.797Z,98.35
2018-12-17T21:49:16.144Z,98.33
2018-12-17T21:51:41.875Z,98.29
2018-12-17T21:54:07.602Z,97.46
2018-12-17T21:56:33.309Z,98.08
2018-12-17T21:58:59.035Z,98.38
2018-12-17T22:01:24.746Z,97.99
2018-12-17T22:03:50.470Z,98.34
2018-12-17T22:06:16.750Z,97.51
2018-12-17T22:08:43.059Z,97.94
2018-12-17T22:11:09.319Z,97.63
2018-12-17T22:13:35.259Z,98.09
2018-12-17T22:16:01.330Z,97.64
2018-12-17T22:18:27.923Z,98.54
2018-12-17T22:20:54.255Z,97.73
2018-12-17T22:23:20.130Z,98.60
2018-12-17T22:25:45.913Z,97.61
2018-12-17T22:28:12.016Z,98.43
2018-12-17T22:30:38.165Z,97.45
2018-12-17T22:33:04.510Z,98.42
2018-12-17T22:35:30.632Z,97.43
2018-12-17T22:37:56.844Z,98.33
2018-12-17T22:40:23.148Z,97.69
2018-12-17T22:42:49.243Z,98.29
2018-12-17T22:45:15.793Z,98.22
2018-12-17T22:47:41.592Z,98.18
2018-12-17T22:50:08.241Z,98.48
2018-12-17T22:52:34.416Z,98.02
2018-12-17T22:55:00.533Z,98.05
2018-12-17T22:57:26.581Z,97.84
2018-12-17T22:59:52.577Z,97.70
2018-12-17T23:02:18.837Z,98.52
2018-12-17T23:04:45.970Z,97.55
2018-12-17T23:07:12.410Z,97.64
2018-12-17T23:09:50.738Z,98.63
2018-12-17T23:12:29.057Z,98.16
2018-12-17T23:15:07.272Z,98.12
2018-12-17T23:17:38.786Z,98.41
2018-12-17T23:20:05.883Z,98.55
2018-12-17T23:22:31.797Z,98.19
2018-12-17T23:24:57.566Z,98.77
2018-12-17T23:27:23.398Z,97.68
2018-12-17T23:29:49.496Z,97.87
2018-12-17T23:32:15.504Z,98.60
2018-12-17T23:34:41.326Z,97.89
2018-12-17T23:37:07.043Z,98.74
2018-12-17T23:39:33.284Z,98.61
2018-12-17T23:42:00.646Z,97.95
2018-12-17T23:44:26.504Z,99.05
2018-12-17T23:46:52.441Z,98.91
2018-12-17T23:49:18.153Z,98.28
2018-12-17T23:51:43.984Z,98.81
2018-12-17T23:54:09.798Z,98.58
2018-12-17T23:56:35.505Z,97.97
2018-12-17T23:59:01.222Z,98.59
